createdAt,value
2019-01-26T00:02:07.102Z,39.47
2019-01-26T00:04:37.907Z,35.60
2019-01-26T00:07:08.679Z,33.93
2019-01-26T00:09:39.452Z,34.43
2019-01-26T00:12:10.326Z,40.30
2019-01-26T00:14:41.107Z,43.40
2019-01-26T00:17:11.872Z,33.87
2019-01-26T00:19:42.670Z,37.73
2019-01-26T00:22:13.432Z,40.70
2019-01-26T00:24:44.264Z,30.40
2019-01-26T00:27:15.093Z,21.17
2019-01-26T00:29:45.874Z,19.37
2019-01-26T00:32:16.631Z,16.23
2019-01-26T00:34:47.406Z,19.93
2019-01-26T00:37:18.223Z,16.53
2019-01-26T00:39:49.000Z,14.67
2019-01-26T00:42:19.766Z,18.50
2019-01-26T00:44:50.534Z,15.20
2019-01-26T00:47:21.321Z,12.80
2019-01-26T00:49:52.104Z,19.90
2019-01-26T00:52:22.875Z,21.43
2019-01-26T00:54:53.661Z,16.93
2019-01-26T00:57:24.517Z,16.00
2019-01-26T00:59:55.291Z,19.30
2019-01-26T01:02:26.050Z,15.47
2019-01-26T01:04:57.972Z,13.50
2019-01-26T01:07:30.763Z,16.17
2019-01-26T01:10:03.869Z,16.07
2019-01-26T01:12:34.651Z,17.30
2019-01-26T01:15:09.124Z,19.17
2019-01-26T01:17:39.911Z,15.78
2019-01-26T01:20:10.786Z,14.23
2019-01-26T01:22:41.566Z,16.87
2019-01-26T01:25:12.745Z,15.67
2019-01-26T01:27:43.505Z,12.53
2019-01-26T01:30:20.587Z,16.13
2019-01-26T01:32:51.346Z,15.65
2019-01-26T01:35:22.115Z,21.30
2019-01-26T01:37:53.147Z,16.80
2019-01-26T01:40:23.930Z,14.65
2019-01-26T01:42:54.702Z,14.23
2019-01-26T01:45:25.475Z,16.80
2019-01-26T01:47:56.259Z,21.27
2019-01-26T01:50:27.207Z,15.80
2019-01-26T01:52:57.970Z,16.00
2019-01-26T01:55:28.757Z,15.90
2019-01-26T01:57:59.513Z,19.03
2019-01-26T02:00:30.278Z,20.40
2019-01-26T02:03:01.041Z,15.73
2019-01-26T02:05:31.812Z,21.23
2019-01-26T02:08:02.976Z,19.03
2019-01-26T02:10:33.780Z,21.17
2019-01-26T02:13:04.548Z,20.80
2019-01-26T02:15:35.308Z,18.40
2019-01-26T02:18:06.072Z,18.37
2019-01-26T02:20:37.211Z,16.40
2019-01-26T02:23:07.980Z,17.85
2019-01-26T02:25:39.094Z,19.40
2019-01-26T02:28:09.865Z,17.02
2019-01-26T02:30:40.657Z,18.13
2019-01-26T02:33:11.438Z,20.73
2019-01-26T02:35:42.227Z,21.77
2019-01-26T02:38:13.006Z,18.77
2019-01-26T02:40:43.863Z,20.57
2019-01-26T02:43:14.635Z,23.97
2019-01-26T02:45:45.411Z,22.27
2019-01-26T02:48:16.205Z,24.03
2019-01-26T02:50:47.000Z,21.67
2019-01-26T02:53:17.769Z,22.60
2019-01-26T02:55:48.574Z,23.83
2019-01-26T02:58:19.305Z,21.03
2019-01-26T03:00:50.090Z,25.50
2019-01-26T03:03:20.852Z,24.97
2019-01-26T03:05:51.708Z,20.70
2019-01-26T03:08:22.481Z,25.77
2019-01-26T03:10:53.242Z,24.03
2019-01-26T03:13:24.038Z,30.23
2019-01-26T03:15:54.805Z,26.83
2019-01-26T03:18:25.584Z,24.00
2019-01-26T03:20:56.352Z,29.27
2019-01-26T03:23:27.136Z,26.63
2019-01-26T03:25:57.895Z,29.70
2019-01-26T03:28:28.656Z,26.47
2019-01-26T03:30:59.426Z,24.53
2019-01-26T03:33:30.199Z,29.37
2019-01-26T03:36:00.962Z,25.93
2019-01-26T03:38:31.831Z,23.67
2019-01-26T03:41:02.702Z,28.73
2019-01-26T03:43:33.469Z,37.57
2019-01-26T03:46:04.252Z,29.70
2019-01-26T03:48:35.034Z,28.30
2019-01-26T03:51:05.791Z,31.17
2019-01-26T03:53:36.575Z,26.50
2019-01-26T03:56:07.342Z,36.83
2019-01-26T03:58:38.112Z,25.17
2019-01-26T04:01:08.889Z,32.50
2019-01-26T04:03:39.663Z,31.10
2019-01-26T04:06:10.431Z,32.17
2019-01-26T04:08:41.208Z,29.90
2019-01-26T04:11:11.966Z,28.67
2019-01-26T04:13:42.754Z,29.90
2019-01-26T04:16:13.599Z,26.63
2019-01-26T04:18:44.473Z,33.97
2019-01-26T04:21:15.239Z,30.20
2019-01-26T04:23:46.028Z,25.07
2019-01-26T04:26:16.769Z,32.17
2019-01-26T04:28:47.543Z,22.90
2019-01-26T04:31:18.298Z,28.20
2019-01-26T04:33:49.073Z,25.50
2019-01-26T04:36:19.835Z,24.00
2019-01-26T04:38:50.617Z,25.83
2019-01-26T04:41:21.377Z,23.33
2019-01-26T04:43:52.214Z,26.93
2019-01-26T04:46:22.982Z,26.10
2019-01-26T04:48:53.767Z,28.53
2019-01-26T04:51:24.589Z,27.97
2019-01-26T04:53:55.377Z,28.63
2019-01-26T04:56:26.152Z,24.57
2019-01-26T04:58:56.934Z,29.23
2019-01-26T05:01:27.703Z,24.20
2019-01-26T05:03:58.496Z,20.03
2019-01-26T05:06:29.326Z,23.60
2019-01-26T05:09:00.087Z,24.40
2019-01-26T05:11:30.850Z,24.27
2019-01-26T05:14:01.623Z,23.20
2019-01-26T05:16:32.465Z,23.63
2019-01-26T05:19:03.277Z,24.80
2019-01-26T05:21:34.058Z,19.70
2019-01-26T05:24:05.919Z,26.40
2019-01-26T05:26:36.834Z,21.30
2019-01-26T05:29:07.675Z,21.37
2019-01-26T05:31:38.567Z,21.13
2019-01-26T05:34:09.460Z,22.77
2019-01-26T05:36:40.342Z,22.77
2019-01-26T05:39:11.078Z,20.73
2019-01-26T05:41:41.937Z,21.27
2019-01-26T05:44:12.715Z,23.57
2019-01-26T05:46:43.495Z,21.43
2019-01-26T05:49:14.264Z,22.97
2019-01-26T05:51:45.031Z,20.60
2019-01-26T05:54:15.822Z,21.47
2019-01-26T05:56:46.758Z,18.83
2019-01-26T05:59:17.579Z,19.80
2019-01-26T06:01:48.353Z,19.90
2019-01-26T06:04:19.146Z,21.27
2019-01-26T06:06:49.903Z,19.50
2019-01-26T06:09:20.670Z,23.97
2019-01-26T06:11:51.476Z,18.80
2019-01-26T06:14:22.271Z,18.93
2019-01-26T06:16:53.076Z,21.77
2019-01-26T06:19:23.786Z,17.43
2019-01-26T06:21:54.559Z,17.93
2019-01-26T06:24:25.320Z,17.40
2019-01-26T06:26:56.091Z,18.30
2019-01-26T06:29:26.907Z,17.23
2019-01-26T06:31:57.783Z,16.73
2019-01-26T06:34:28.554Z,18.30
2019-01-26T06:36:59.325Z,17.10
2019-01-26T06:39:30.122Z,18.50
2019-01-26T06:42:00.898Z,15.90
2019-01-26T06:44:31.714Z,11.63
2019-01-26T06:47:02.698Z,17.33
2019-01-26T06:49:33.464Z,15.45
2019-01-26T06:52:04.234Z,19.00
2019-01-26T06:54:35.000Z,13.70
2019-01-26T06:57:05.768Z,14.80
2019-01-26T06:59:36.626Z,14.73
2019-01-26T07:02:07.411Z,16.70
2019-01-26T07:04:40.075Z,14.00
2019-01-26T07:07:12.248Z,15.65
2019-01-26T07:09:43.017Z,13.90
2019-01-26T07:12:13.792Z,13.80
2019-01-26T07:14:44.559Z,12.27
2019-01-26T07:17:15.336Z,17.63
2019-01-26T07:19:46.100Z,16.53
2019-01-26T07:22:16.862Z,11.63
2019-01-26T07:24:47.635Z,15.17
2019-01-26T07:27:18.406Z,11.97
2019-01-26T07:29:49.166Z,14.93
2019-01-26T07:32:19.929Z,15.30
2019-01-26T07:34:50.715Z,9.80
2019-01-26T07:37:21.486Z,14.00
2019-01-26T07:39:52.249Z,13.73
2019-01-26T07:42:23.017Z,14.00
2019-01-26T07:44:53.780Z,17.53
2019-01-26T07:47:24.568Z,15.73
2019-01-26T07:49:55.413Z,15.17
2019-01-26T07:52:26.310Z,14.00
2019-01-26T07:54:57.137Z,14.07
2019-01-26T07:57:27.972Z,15.77
2019-01-26T07:59:58.732Z,14.73
2019-01-26T08:02:29.601Z,14.73
2019-01-26T08:05:00.384Z,12.73
2019-01-26T08:07:31.136Z,13.27
2019-01-26T08:10:04.405Z,15.20
2019-01-26T08:12:35.195Z,15.43
2019-01-26T08:15:09.775Z,12.80
2019-01-26T08:17:40.546Z,12.82
2019-01-26T08:20:17.422Z,16.07
2019-01-26T08:22:48.196Z,11.65
2019-01-26T08:25:20.116Z,12.90
2019-01-26T08:27:50.890Z,15.05
2019-01-26T08:30:22.752Z,13.23
2019-01-26T08:32:53.534Z,13.90
2019-01-26T08:35:24.326Z,11.67
2019-01-26T08:37:55.198Z,11.63
2019-01-26T08:40:26.062Z,11.10
2019-01-26T08:42:57.014Z,13.07
2019-01-26T08:45:27.971Z,13.50
2019-01-26T08:47:58.843Z,12.40
2019-01-26T08:50:29.714Z,13.13
2019-01-26T08:53:00.621Z,11.83
2019-01-26T08:55:31.402Z,12.60
2019-01-26T08:58:02.283Z,12.80
2019-01-26T09:00:33.062Z,14.03
2019-01-26T09:03:05.750Z,11.90
2019-01-26T09:05:56.622Z,14.05
2019-01-26T09:08:27.564Z,13.85
2019-01-26T09:10:58.426Z,12.90
2019-01-26T09:13:29.284Z,12.00
2019-01-26T09:16:00.098Z,13.33
2019-01-26T09:18:30.978Z,11.63
2019-01-26T09:21:01.950Z,12.50
2019-01-26T09:23:32.855Z,9.10
2019-01-26T09:26:03.856Z,13.63
2019-01-26T09:28:35.118Z,13.72
2019-01-26T09:31:06.102Z,10.98
2019-01-26T09:33:37.180Z,10.75
2019-01-26T09:36:08.167Z,12.82
2019-01-26T09:38:39.129Z,14.55
2019-01-26T09:41:10.147Z,12.80
2019-01-26T09:43:41.090Z,13.35
2019-01-26T09:46:12.251Z,9.90
2019-01-26T09:48:46.342Z,11.97
2019-01-26T09:51:15.816Z,11.03
2019-01-26T09:53:46.719Z,14.17
2019-01-26T09:56:17.548Z,13.70
2019-01-26T09:58:48.454Z,14.10
2019-01-26T10:01:19.404Z,13.00
2019-01-26T10:03:50.216Z,11.50
2019-01-26T10:06:21.136Z,11.13
2019-01-26T10:08:52.059Z,15.17
2019-01-26T10:11:22.974Z,12.83
2019-01-26T10:13:53.892Z,12.13
2019-01-26T10:16:24.796Z,13.20
2019-01-26T10:18:55.597Z,13.37
2019-01-26T10:21:26.509Z,10.73
2019-01-26T10:23:57.816Z,12.63
2019-01-26T10:26:28.803Z,13.05
2019-01-26T10:29:00.130Z,13.25
2019-01-26T10:31:31.093Z,11.22
2019-01-26T10:34:01.999Z,11.47
2019-01-26T10:36:34.795Z,13.30
2019-01-26T10:39:07.390Z,16.15
2019-01-26T10:41:40.254Z,12.58
2019-01-26T10:44:13.020Z,15.23
2019-01-26T10:46:44.159Z,12.82
2019-01-26T10:49:15.270Z,17.20
2019-01-26T10:51:46.289Z,12.93
2019-01-26T10:54:17.335Z,15.10
2019-01-26T10:56:48.439Z,12.45
2019-01-26T10:59:19.429Z,10.85
2019-01-26T11:01:50.590Z,14.85
2019-01-26T11:04:21.728Z,12.47
2019-01-26T11:06:53.161Z,9.70
2019-01-26T11:09:24.460Z,13.75
2019-01-26T11:11:55.510Z,12.00
2019-01-26T11:14:26.581Z,12.73
2019-01-26T11:16:57.509Z,12.00
2019-01-26T11:19:28.609Z,11.50
2019-01-26T11:21:59.751Z,15.05
2019-01-26T11:24:30.697Z,16.40
2019-01-26T11:27:01.855Z,16.30
2019-01-26T11:29:32.677Z,11.45
2019-01-26T11:32:04.044Z,13.80
2019-01-26T11:34:35.266Z,13.80
2019-01-26T11:37:06.411Z,13.65
2019-01-26T11:39:39.401Z,12.73
2019-01-26T11:42:10.465Z,17.60
2019-01-26T11:44:43.255Z,13.55
2019-01-26T11:47:14.480Z,16.05
2019-01-26T11:49:47.265Z,15.75
2019-01-26T11:52:18.393Z,13.90
2019-01-26T11:54:51.142Z,13.00
2019-01-26T11:57:22.453Z,15.38
2019-01-26T12:00:11.808Z,12.82
2019-01-26T12:02:44.603Z,15.78
2019-01-26T12:05:17.411Z,15.75
2019-01-26T12:07:48.741Z,14.73
2019-01-26T12:10:20.088Z,15.15
2019-01-26T12:12:51.301Z,14.55
2019-01-26T12:15:22.967Z,17.95
2019-01-26T12:17:54.236Z,18.92
2019-01-26T12:20:25.770Z,17.05
2019-01-26T12:22:56.938Z,16.12
2019-01-26T12:25:28.377Z,18.67
2019-01-26T12:27:59.833Z,19.87
2019-01-26T12:30:31.498Z,13.65
2019-01-26T12:33:02.890Z,16.95
2019-01-26T12:35:33.953Z,18.80
2019-01-26T12:38:05.332Z,16.40
2019-01-26T12:40:36.780Z,17.37
2019-01-26T12:43:08.553Z,17.37
2019-01-26T12:45:39.799Z,16.23
2019-01-26T12:48:11.222Z,15.10
2019-01-26T12:50:42.675Z,16.95
2019-01-26T12:53:13.796Z,16.70
2019-01-26T12:55:44.967Z,16.60
2019-01-26T12:58:16.228Z,16.73
2019-01-26T13:00:47.329Z,16.80
2019-01-26T13:03:18.821Z,16.05
2019-01-26T13:05:50.258Z,15.13
2019-01-26T13:08:21.822Z,16.80
2019-01-26T13:11:05.931Z,15.95
2019-01-26T13:13:37.183Z,12.18
2019-01-26T13:16:08.549Z,12.95
2019-01-26T13:18:40.102Z,16.52
2019-01-26T13:21:11.452Z,17.32
2019-01-26T13:23:43.130Z,13.65
2019-01-26T13:26:14.564Z,15.40
2019-01-26T13:28:46.131Z,16.35
2019-01-26T13:31:17.559Z,14.75
2019-01-26T13:33:48.917Z,17.60
2019-01-26T13:36:20.635Z,13.75
2019-01-26T13:38:52.124Z,13.83
2019-01-26T13:41:23.668Z,10.45
2019-01-26T13:43:55.644Z,12.93
2019-01-26T13:46:27.397Z,14.05
2019-01-26T13:48:58.970Z,12.33
2019-01-26T13:51:31.528Z,11.70
2019-01-26T13:54:04.193Z,15.08
2019-01-26T13:56:35.757Z,16.55
2019-01-26T13:59:06.923Z,11.80
2019-01-26T14:01:38.463Z,14.43
2019-01-26T14:04:09.884Z,11.38
2019-01-26T14:06:41.094Z,13.65
2019-01-26T14:09:12.196Z,15.23
2019-01-26T14:11:43.435Z,12.55
2019-01-26T14:14:14.559Z,15.03
2019-01-26T14:16:45.641Z,12.37
2019-01-26T14:19:16.997Z,15.48
2019-01-26T14:21:48.427Z,18.17
2019-01-26T14:24:19.806Z,12.90
2019-01-26T14:26:51.142Z,14.63
2019-01-26T14:29:22.467Z,13.10
2019-01-26T14:31:53.818Z,17.57
2019-01-26T14:34:25.441Z,16.30
2019-01-26T14:36:57.017Z,14.10
2019-01-26T14:39:28.607Z,15.45
2019-01-26T14:41:59.697Z,13.35
2019-01-26T14:44:30.941Z,13.70
2019-01-26T14:47:02.139Z,12.82
2019-01-26T14:49:33.492Z,14.73
2019-01-26T14:52:04.908Z,18.73
2019-01-26T14:54:36.068Z,13.70
2019-01-26T14:57:07.406Z,13.85
2019-01-26T14:59:38.500Z,15.18
2019-01-26T15:02:09.614Z,15.15
2019-01-26T15:04:40.695Z,11.53
2019-01-26T15:07:11.974Z,12.63
2019-01-26T15:09:43.091Z,11.78
2019-01-26T15:12:14.472Z,15.25
2019-01-26T15:14:46.182Z,10.65
2019-01-26T15:17:17.496Z,13.80
2019-01-26T15:19:49.055Z,11.65
2019-01-26T15:22:20.469Z,13.40
2019-01-26T15:24:51.750Z,10.68
2019-01-26T15:27:23.078Z,14.98
2019-01-26T15:29:54.781Z,12.63
2019-01-26T15:32:26.198Z,10.38
2019-01-26T15:34:57.762Z,12.58
2019-01-26T15:37:29.081Z,11.43
2019-01-26T15:40:00.656Z,10.55
2019-01-26T15:42:32.180Z,11.53
2019-01-26T15:45:12.584Z,12.40
2019-01-26T15:47:43.927Z,11.75
2019-01-26T15:50:15.349Z,12.98
2019-01-26T15:52:46.595Z,13.88
2019-01-26T15:55:20.730Z,11.65
2019-01-26T15:57:52.555Z,11.70
2019-01-26T16:00:27.924Z,10.95
2019-01-26T16:02:59.562Z,10.00
2019-01-26T16:05:31.012Z,10.60
2019-01-26T16:08:02.519Z,10.15
2019-01-26T16:10:33.660Z,10.43
2019-01-26T16:13:04.803Z,9.25
2019-01-26T16:15:37.788Z,12.68
2019-01-26T16:18:11.115Z,12.93
2019-01-26T16:20:42.699Z,13.68
2019-01-26T16:23:14.445Z,11.80
2019-01-26T16:25:45.956Z,10.10
2019-01-26T16:28:17.556Z,9.53
2019-01-26T16:30:49.333Z,7.87
2019-01-26T16:33:21.079Z,8.90
2019-01-26T16:35:52.933Z,8.90
2019-01-26T16:38:24.289Z,14.78
2019-01-26T16:40:55.998Z,9.18
2019-01-26T16:43:27.479Z,8.65
2019-01-26T16:45:58.888Z,10.45
2019-01-26T16:48:30.302Z,11.48
2019-01-26T16:51:02.072Z,9.45
2019-01-26T16:53:33.721Z,9.95
2019-01-26T16:56:05.383Z,7.45
2019-01-26T16:58:36.594Z,9.28
2019-01-26T17:01:08.160Z,9.03
2019-01-26T17:03:39.503Z,10.05
2019-01-26T17:06:11.176Z,9.08
2019-01-26T17:08:42.691Z,10.53
2019-01-26T17:11:14.392Z,11.33
2019-01-26T17:13:45.914Z,8.00
2019-01-26T17:16:17.461Z,9.15
2019-01-26T17:18:48.822Z,8.90
2019-01-26T17:21:20.412Z,8.88
2019-01-26T17:23:51.836Z,9.15
2019-01-26T17:26:23.318Z,7.67
2019-01-26T17:28:54.829Z,11.95
2019-01-26T17:31:26.143Z,10.20
2019-01-26T17:33:57.421Z,10.30
2019-01-26T17:36:28.566Z,10.15
2019-01-26T17:38:59.921Z,9.13
2019-01-26T17:41:31.294Z,8.13
2019-01-26T17:44:02.527Z,11.20
2019-01-26T17:46:33.911Z,10.28
2019-01-26T17:49:05.311Z,8.50
2019-01-26T17:51:37.070Z,9.85
2019-01-26T17:54:08.827Z,11.30
2019-01-26T17:56:40.437Z,11.10
2019-01-26T17:59:11.835Z,7.67
2019-01-26T18:01:43.191Z,8.35
2019-01-26T18:04:14.514Z,11.97
2019-01-26T18:06:45.760Z,8.25
2019-01-26T18:09:17.415Z,10.28
2019-01-26T18:11:49.215Z,9.63
2019-01-26T18:14:20.662Z,9.25
2019-01-26T18:16:52.124Z,7.75
2019-01-26T18:19:23.661Z,7.15
2019-01-26T18:21:55.638Z,7.10
2019-01-26T18:24:27.361Z,10.45
2019-01-26T18:26:59.043Z,8.20
2019-01-26T18:29:30.727Z,6.97
2019-01-26T18:32:02.439Z,11.85
2019-01-26T18:34:34.079Z,13.30
2019-01-26T18:37:05.788Z,9.25
2019-01-26T18:39:37.292Z,10.98
2019-01-26T18:42:08.818Z,11.20
2019-01-26T18:44:40.501Z,12.10
2019-01-26T18:47:12.527Z,8.00
2019-01-26T18:49:44.170Z,9.08
2019-01-26T18:52:15.950Z,9.78
2019-01-26T18:54:47.632Z,10.13
2019-01-26T18:57:19.663Z,11.05
2019-01-26T18:59:51.451Z,8.78
2019-01-26T19:02:23.487Z,8.85
2019-01-26T19:04:56.304Z,11.57
2019-01-26T19:07:28.056Z,9.23
2019-01-26T19:10:00.022Z,10.48
2019-01-26T19:12:32.071Z,9.30
2019-01-26T19:15:07.324Z,9.65
2019-01-26T19:17:39.215Z,9.75
2019-01-26T19:20:13.515Z,9.50
2019-01-26T19:22:45.495Z,11.38
2019-01-26T19:25:19.368Z,11.70
2019-01-26T19:27:51.757Z,8.30
2019-01-26T19:30:24.062Z,9.48
2019-01-26T19:32:55.894Z,9.30
2019-01-26T19:35:27.842Z,8.85
2019-01-26T19:37:59.822Z,9.90
2019-01-26T19:40:31.965Z,13.50
2019-01-26T19:43:04.047Z,8.95
2019-01-26T19:45:35.722Z,9.10
2019-01-26T19:48:07.659Z,11.22
2019-01-26T19:50:39.512Z,10.75
2019-01-26T19:53:11.590Z,11.68
2019-01-26T19:55:44.476Z,12.00
2019-01-26T19:58:16.365Z,8.83
2019-01-26T20:00:48.400Z,10.38
2019-01-26T20:03:20.411Z,11.40
2019-01-26T20:05:52.429Z,9.83
2019-01-26T20:08:24.344Z,10.00
2019-01-26T20:10:56.248Z,11.95
2019-01-26T20:13:28.124Z,9.88
2019-01-26T20:15:59.974Z,11.93
2019-01-26T20:18:31.787Z,9.90
2019-01-26T20:21:04.201Z,12.90
2019-01-26T20:23:35.862Z,14.10
2019-01-26T20:26:07.512Z,10.05
2019-01-26T20:28:39.405Z,11.05
2019-01-26T20:31:11.333Z,10.20
2019-01-26T20:33:43.114Z,11.30
2019-01-26T20:36:15.065Z,10.23
2019-01-26T20:38:47.280Z,11.93
2019-01-26T20:41:19.187Z,11.53
2019-01-26T20:43:51.467Z,10.10
2019-01-26T20:46:23.206Z,9.00
2019-01-26T20:48:55.086Z,13.05
2019-01-26T20:51:26.873Z,8.75
2019-01-26T20:53:58.684Z,9.68
2019-01-26T20:56:30.549Z,10.40
2019-01-26T20:59:02.428Z,11.65
2019-01-26T21:01:34.381Z,11.73
2019-01-26T21:04:06.269Z,12.73
2019-01-26T21:06:37.901Z,10.53
2019-01-26T21:09:10.002Z,9.53
2019-01-26T21:11:41.820Z,10.38
2019-01-26T21:14:13.742Z,10.72
2019-01-26T21:16:45.637Z,12.20
2019-01-26T21:19:17.531Z,11.00
2019-01-26T21:21:49.366Z,11.75
2019-01-26T21:24:21.048Z,11.38
2019-01-26T21:26:52.690Z,11.12
2019-01-26T21:29:24.787Z,8.80
2019-01-26T21:31:56.500Z,9.90
2019-01-26T21:34:28.223Z,9.93
2019-01-26T21:36:59.865Z,10.28
2019-01-26T21:39:31.503Z,10.80
2019-01-26T21:42:03.236Z,9.83
2019-01-26T21:44:34.911Z,10.40
2019-01-26T21:47:06.548Z,10.28
2019-01-26T21:49:38.221Z,13.53
2019-01-26T21:52:09.873Z,11.22
2019-01-26T21:54:41.568Z,11.33
2019-01-26T21:57:13.165Z,11.40
2019-01-26T21:59:44.940Z,13.45
2019-01-26T22:02:16.418Z,12.05
2019-01-26T22:04:47.790Z,14.40
2019-01-26T22:07:19.463Z,10.75
2019-01-26T22:09:50.633Z,12.85
2019-01-26T22:12:22.188Z,10.32
2019-01-26T22:14:53.644Z,10.70
2019-01-26T22:17:24.940Z,10.40
2019-01-26T22:19:56.455Z,10.70
2019-01-26T22:22:27.872Z,10.98
2019-01-26T22:24:58.984Z,9.83
2019-01-26T22:27:30.428Z,12.70
2019-01-26T22:30:03.885Z,10.88
2019-01-26T22:32:35.218Z,9.70
2019-01-26T22:35:06.680Z,9.35
2019-01-26T22:37:37.775Z,8.90
2019-01-26T22:40:13.009Z,9.68
2019-01-26T22:42:44.336Z,10.00
2019-01-26T22:45:15.532Z,9.80
2019-01-26T22:47:46.597Z,8.88
2019-01-26T22:50:20.276Z,8.78
2019-01-26T22:52:51.442Z,8.65
2019-01-26T22:55:22.340Z,8.80
2019-01-26T22:57:53.810Z,10.67
2019-01-26T23:00:42.138Z,9.88
2019-01-26T23:03:13.762Z,8.68
2019-01-26T23:06:14.099Z,10.65
2019-01-26T23:08:46.311Z,8.38
2019-01-26T23:11:39.132Z,7.03
2019-01-26T23:14:16.500Z,9.20
2019-01-26T23:16:54.146Z,10.05
2019-01-26T23:19:31.745Z,7.75
2019-01-26T23:22:27.607Z,9.08
2019-01-26T23:25:07.943Z,8.53
2019-01-26T23:27:57.944Z,8.90
2019-01-26T23:31:06.551Z,6.67
2019-01-26T23:33:37.431Z,10.25
2019-01-26T23:36:08.287Z,6.93
2019-01-26T23:38:39.059Z,7.00
2019-01-26T23:41:09.875Z,7.83
2019-01-26T23:43:40.653Z,6.90
2019-01-26T23:46:11.414Z,7.80
2019-01-26T23:48:42.214Z,8.57
2019-01-26T23:51:13.084Z,6.90
2019-01-26T23:53:43.877Z,7.30
2019-01-26T23:56:14.639Z,6.60
2019-01-26T23:58:45.410Z,6.37
